sensor_id;sensor_type;location;lat;lon;timestamp;P1;durP1;ratioP1;P2;durP2;ratioP2
19985;SDS011;10154;52.474;10.768;2023-06-14T00:00:35;2.33;;;1.50;;
19985;SDS011;10154;52.474;10.768;2023-06-14T00:03:01;7.88;;;1.33;;
19985;SDS011;10154;52.474;10.768;2023-06-14T00:05:28;3.40;;;1.63;;
19985;SDS011;10154;52.474;10.768;2023-06-14T00:07:54;9.13;;;1.58;;
19985;SDS011;10154;52.474;10.768;2023-06-14T00:10:20;5.03;;;1.58;;
19985;SDS011;10154;52.474;10.768;2023-06-14T00:12:45;5.88;;;1.50;;
19985;SDS011;10154;52.474;10.768;2023-06-14T00:15:11;6.25;;;1.70;;
19985;SDS011;10154;52.474;10.768;2023-06-14T00:17:36;2.70;;;1.35;;
19985;SDS011;10154;52.474;10.768;2023-06-14T00:20:04;5.60;;;1.40;;
19985;SDS011;10154;52.474;10.768;2023-06-14T00:22:32;4.60;;;1.55;;
19985;SDS011;10154;52.474;10.768;2023-06-14T00:24:59;2.58;;;1.55;;
19985;SDS011;10154;52.474;10.768;2023-06-14T00:27:24;5.30;;;1.48;;
19985;SDS011;10154;52.474;10.768;2023-06-14T00:29:50;2.08;;;1.30;;
19985;SDS011;10154;52.474;10.768;2023-06-14T00:32:16;3.45;;;1.25;;
19985;SDS011;10154;52.474;10.768;2023-06-14T00:34:42;4.72;;;1.48;;
19985;SDS011;10154;52.474;10.768;2023-06-14T00:37:08;2.70;;;1.52;;
19985;SDS011;10154;52.474;10.768;2023-06-14T00:39:33;5.85;;;1.60;;
19985;SDS011;10154;52.474;10.768;2023-06-14T00:41:58;2.53;;;1.40;;
19985;SDS011;10154;52.474;10.768;2023-06-14T00:44:24;2.97;;;1.50;;
19985;SDS011;10154;52.474;10.768;2023-06-14T00:46:49;4.68;;;1.30;;
19985;SDS011;10154;52.474;10.768;2023-06-14T00:49:16;5.38;;;1.40;;
19985;SDS011;10154;52.474;10.768;2023-06-14T00:51:42;2.00;;;1.45;;
19985;SDS011;10154;52.474;10.768;2023-06-14T00:54:08;3.78;;;1.60;;
19985;SDS011;10154;52.474;10.768;2023-06-14T00:56:37;2.75;;;1.40;;
19985;SDS011;10154;52.474;10.768;2023-06-14T00:59:03;1.80;;;1.42;;
19985;SDS011;10154;52.474;10.768;2023-06-14T01:01:29;2.22;;;1.50;;
19985;SDS011;10154;52.474;10.768;2023-06-14T01:03:58;6.68;;;1.60;;
19985;SDS011;10154;52.474;10.768;2023-06-14T01:09:13;2.42;;;1.40;;
19985;SDS011;10154;52.474;10.768;2023-06-14T01:12:34;2.00;;;1.40;;
19985;SDS011;10154;52.474;10.768;2023-06-14T01:14:38;2.88;;;1.58;;
19985;SDS011;10154;52.474;10.768;2023-06-14T01:17:03;5.97;;;1.60;;
19985;SDS011;10154;52.474;10.768;2023-06-14T01:19:29;2.80;;;1.40;;
19985;SDS011;10154;52.474;10.768;2023-06-14T01:21:56;3.85;;;1.30;;
19985;SDS011;10154;52.474;10.768;2023-06-14T01:24:22;2.90;;;1.40;;
19985;SDS011;10154;52.474;10.768;2023-06-14T01:26:51;2.83;;;1.40;;
19985;SDS011;10154;52.474;10.768;2023-06-14T01:29:20;2.95;;;1.55;;
19985;SDS011;10154;52.474;10.768;2023-06-14T01:31:47;3.28;;;1.38;;
19985;SDS011;10154;52.474;10.768;2023-06-14T01:34:12;3.75;;;1.70;;
19985;SDS011;10154;52.474;10.768;2023-06-14T01:36:38;3.03;;;1.50;;
19985;SDS011;10154;52.474;10.768;2023-06-14T01:39:06;3.78;;;1.50;;
19985;SDS011;10154;52.474;10.768;2023-06-14T01:41:31;4.93;;;1.30;;
19985;SDS011;10154;52.474;10.768;2023-06-14T01:43:58;2.92;;;1.40;;
19985;SDS011;10154;52.474;10.768;2023-06-14T01:46:23;1.92;;;1.27;;
19985;SDS011;10154;52.474;10.768;2023-06-14T01:48:49;4.00;;;1.50;;
19985;SDS011;10154;52.474;10.768;2023-06-14T01:51:15;2.53;;;1.42;;
19985;SDS011;10154;52.474;10.768;2023-06-14T01:53:40;6.72;;;1.70;;
19985;SDS011;10154;52.474;10.768;2023-06-14T01:56:06;2.57;;;1.40;;
19985;SDS011;10154;52.474;10.768;2023-06-14T01:58:31;3.97;;;1.45;;
19985;SDS011;10154;52.474;10.768;2023-06-14T02:00:57;7.13;;;1.43;;
19985;SDS011;10154;52.474;10.768;2023-06-14T02:03:23;3.33;;;1.30;;
19985;SDS011;10154;52.474;10.768;2023-06-14T02:05:49;2.07;;;1.43;;
19985;SDS011;10154;52.474;10.768;2023-06-14T02:08:15;6.57;;;1.63;;
19985;SDS011;10154;52.474;10.768;2023-06-14T02:10:40;3.05;;;1.40;;
19985;SDS011;10154;52.474;10.768;2023-06-14T02:13:05;7.18;;;1.60;;
19985;SDS011;10154;52.474;10.768;2023-06-14T02:15:31;4.28;;;1.60;;
19985;SDS011;10154;52.474;10.768;2023-06-14T02:18:02;2.72;;;1.27;;
19985;SDS011;10154;52.474;10.768;2023-06-14T02:20:28;3.50;;;1.50;;
19985;SDS011;10154;52.474;10.768;2023-06-14T02:22:54;2.20;;;1.50;;
19985;SDS011;10154;52.474;10.768;2023-06-14T02:25:19;2.95;;;1.40;;
19985;SDS011;10154;52.474;10.768;2023-06-14T02:27:45;6.40;;;1.75;;
19985;SDS011;10154;52.474;10.768;2023-06-14T02:30:10;2.42;;;1.50;;
19985;SDS011;10154;52.474;10.768;2023-06-14T02:32:36;2.42;;;1.40;;
19985;SDS011;10154;52.474;10.768;2023-06-14T02:35:01;2.73;;;1.50;;
19985;SDS011;10154;52.474;10.768;2023-06-14T02:37:27;3.90;;;1.42;;
19985;SDS011;10154;52.474;10.768;2023-06-14T02:39:53;3.67;;;1.50;;
19985;SDS011;10154;52.474;10.768;2023-06-14T02:42:18;4.10;;;1.20;;
19985;SDS011;10154;52.474;10.768;2023-06-14T02:44:44;3.67;;;1.47;;
19985;SDS011;10154;52.474;10.768;2023-06-14T02:47:11;3.97;;;1.70;;
19985;SDS011;10154;52.474;10.768;2023-06-14T02:49:36;2.33;;;1.25;;
19985;SDS011;10154;52.474;10.768;2023-06-14T02:52:02;1.57;;;1.27;;
19985;SDS011;10154;52.474;10.768;2023-06-14T02:54:27;4.30;;;1.60;;
19985;SDS011;10154;52.474;10.768;2023-06-14T02:56:53;2.10;;;1.33;;
19985;SDS011;10154;52.474;10.768;2023-06-14T02:59:19;4.82;;;1.63;;
19985;SDS011;10154;52.474;10.768;2023-06-14T03:01:46;4.10;;;1.33;;
19985;SDS011;10154;52.474;10.768;2023-06-14T03:04:11;2.17;;;1.50;;
19985;SDS011;10154;52.474;10.768;2023-06-14T03:06:37;3.47;;;1.60;;
19985;SDS011;10154;52.474;10.768;2023-06-14T03:09:03;2.17;;;1.40;;
19985;SDS011;10154;52.474;10.768;2023-06-14T03:11:32;2.37;;;1.50;;
19985;SDS011;10154;52.474;10.768;2023-06-14T03:13:57;4.07;;;1.52;;
19985;SDS011;10154;52.474;10.768;2023-06-14T03:16:23;2.75;;;1.55;;
19985;SDS011;10154;52.474;10.768;2023-06-14T03:18:52;2.75;;;1.35;;
19985;SDS011;10154;52.474;10.768;2023-06-14T03:21:18;2.58;;;1.33;;
19985;SDS011;10154;52.474;10.768;2023-06-14T03:23:45;5.80;;;1.70;;
19985;SDS011;10154;52.474;10.768;2023-06-14T03:26:11;3.65;;;1.58;;
19985;SDS011;10154;52.474;10.768;2023-06-14T03:28:40;2.97;;;1.50;;
19985;SDS011;10154;52.474;10.768;2023-06-14T03:31:06;5.47;;;1.60;;
19985;SDS011;10154;52.474;10.768;2023-06-14T03:33:32;2.20;;;1.50;;
19985;SDS011;10154;52.474;10.768;2023-06-14T03:35:57;4.73;;;1.70;;
19985;SDS011;10154;52.474;10.768;2023-06-14T03:38:22;3.20;;;1.67;;
19985;SDS011;10154;52.474;10.768;2023-06-14T03:40:48;4.90;;;2.17;;
19985;SDS011;10154;52.474;10.768;2023-06-14T03:43:13;4.23;;;1.57;;
19985;SDS011;10154;52.474;10.768;2023-06-14T03:45:39;6.43;;;1.90;;
19985;SDS011;10154;52.474;10.768;2023-06-14T03:48:05;4.00;;;1.60;;
19985;SDS011;10154;52.474;10.768;2023-06-14T03:50:31;3.75;;;1.63;;
19985;SDS011;10154;52.474;10.768;2023-06-14T03:52:57;3.03;;;1.50;;
19985;SDS011;10154;52.474;10.768;2023-06-14T03:55:23;3.75;;;1.70;;
19985;SDS011;10154;52.474;10.768;2023-06-14T03:57:50;4.72;;;1.45;;
19985;SDS011;10154;52.474;10.768;2023-06-14T04:00:16;3.05;;;1.70;;
19985;SDS011;10154;52.474;10.768;2023-06-14T04:02:42;2.88;;;1.70;;
19985;SDS011;10154;52.474;10.768;2023-06-14T04:05:09;3.33;;;1.70;;
19985;SDS011;10154;52.474;10.768;2023-06-14T04:07:34;6.07;;;1.90;;
19985;SDS011;10154;52.474;10.768;2023-06-14T04:10:05;3.00;;;1.90;;
19985;SDS011;10154;52.474;10.768;2023-06-14T04:12:31;4.53;;;1.70;;
19985;SDS011;10154;52.474;10.768;2023-06-14T04:14:57;3.53;;;1.50;;
19985;SDS011;10154;52.474;10.768;2023-06-14T04:17:22;2.58;;;1.80;;
19985;SDS011;10154;52.474;10.768;2023-06-14T04:19:47;4.47;;;1.40;;
19985;SDS011;10154;52.474;10.768;2023-06-14T04:22:13;2.97;;;1.60;;
19985;SDS011;10154;52.474;10.768;2023-06-14T04:24:38;2.83;;;1.63;;
19985;SDS011;10154;52.474;10.768;2023-06-14T04:27:04;2.30;;;1.50;;
19985;SDS011;10154;52.474;10.768;2023-06-14T04:29:31;2.53;;;1.70;;
19985;SDS011;10154;52.474;10.768;2023-06-14T04:31:57;4.32;;;1.67;;
19985;SDS011;10154;52.474;10.768;2023-06-14T04:34:25;2.63;;;1.70;;
19985;SDS011;10154;52.474;10.768;2023-06-14T04:36:54;4.50;;;1.88;;
19985;SDS011;10154;52.474;10.768;2023-06-14T04:39:20;10.82;;;1.60;;
19985;SDS011;10154;52.474;10.768;2023-06-14T04:41:46;4.40;;;1.65;;
19985;SDS011;10154;52.474;10.768;2023-06-14T04:44:12;5.93;;;1.58;;
19985;SDS011;10154;52.474;10.768;2023-06-14T04:46:37;4.28;;;1.70;;
19985;SDS011;10154;52.474;10.768;2023-06-14T04:49:11;4.10;;;1.73;;
19985;SDS011;10154;52.474;10.768;2023-06-14T04:51:40;4.68;;;1.65;;
19985;SDS011;10154;52.474;10.768;2023-06-14T04:54:06;3.75;;;1.60;;
19985;SDS011;10154;52.474;10.768;2023-06-14T04:56:34;3.80;;;1.60;;
19985;SDS011;10154;52.474;10.768;2023-06-14T04:59:00;4.00;;;1.75;;
19985;SDS011;10154;52.474;10.768;2023-06-14T05:01:26;6.18;;;2.00;;
19985;SDS011;10154;52.474;10.768;2023-06-14T05:03:51;4.57;;;2.20;;
19985;SDS011;10154;52.474;10.768;2023-06-14T05:06:17;6.18;;;1.77;;
19985;SDS011;10154;52.474;10.768;2023-06-14T05:08:42;3.30;;;1.90;;
19985;SDS011;10154;52.474;10.768;2023-06-14T05:11:07;2.83;;;1.77;;
19985;SDS011;10154;52.474;10.768;2023-06-14T05:13:33;4.25;;;1.95;;
19985;SDS011;10154;52.474;10.768;2023-06-14T05:15:59;5.45;;;2.17;;
19985;SDS011;10154;52.474;10.768;2023-06-14T05:18:25;3.10;;;1.80;;
19985;SDS011;10154;52.474;10.768;2023-06-14T05:20:51;3.72;;;2.03;;
19985;SDS011;10154;52.474;10.768;2023-06-14T05:23:16;5.53;;;2.23;;
19985;SDS011;10154;52.474;10.768;2023-06-14T05:25:42;2.55;;;1.92;;
19985;SDS011;10154;52.474;10.768;2023-06-14T05:28:08;2.90;;;1.80;;
19985;SDS011;10154;52.474;10.768;2023-06-14T05:30:34;4.83;;;2.10;;
19985;SDS011;10154;52.474;10.768;2023-06-14T05:32:59;11.13;;;2.40;;
19985;SDS011;10154;52.474;10.768;2023-06-14T05:35:25;3.03;;;2.03;;
19985;SDS011;10154;52.474;10.768;2023-06-14T05:37:51;3.13;;;2.15;;
19985;SDS011;10154;52.474;10.768;2023-06-14T05:40:17;3.75;;;2.22;;
19985;SDS011;10154;52.474;10.768;2023-06-14T05:42:42;5.88;;;2.22;;
19985;SDS011;10154;52.474;10.768;2023-06-14T05:45:08;7.35;;;2.25;;
19985;SDS011;10154;52.474;10.768;2023-06-14T05:47:33;4.78;;;2.42;;
19985;SDS011;10154;52.474;10.768;2023-06-14T05:49:59;4.32;;;2.40;;
19985;SDS011;10154;52.474;10.768;2023-06-14T05:52:24;3.97;;;2.10;;
19985;SDS011;10154;52.474;10.768;2023-06-14T05:54:50;5.57;;;2.40;;
19985;SDS011;10154;52.474;10.768;2023-06-14T05:57:15;2.75;;;1.90;;
19985;SDS011;10154;52.474;10.768;2023-06-14T05:59:41;3.25;;;2.17;;
19985;SDS011;10154;52.474;10.768;2023-06-14T06:02:06;4.35;;;2.42;;
19985;SDS011;10154;52.474;10.768;2023-06-14T06:04:32;4.93;;;2.38;;
19985;SDS011;10154;52.474;10.768;2023-06-14T06:06:57;8.93;;;2.60;;
19985;SDS011;10154;52.474;10.768;2023-06-14T06:09:22;4.30;;;2.15;;
19985;SDS011;10154;52.474;10.768;2023-06-14T06:11:48;3.67;;;2.33;;
19985;SDS011;10154;52.474;10.768;2023-06-14T06:14:13;6.18;;;2.63;;
19985;SDS011;10154;52.474;10.768;2023-06-14T06:16:38;3.13;;;2.40;;
19985;SDS011;10154;52.474;10.768;2023-06-14T06:19:04;3.35;;;2.25;;
19985;SDS011;10154;52.474;10.768;2023-06-14T06:21:29;7.20;;;2.20;;
19985;SDS011;10154;52.474;10.768;2023-06-14T06:23:54;5.32;;;2.40;;
19985;SDS011;10154;52.474;10.768;2023-06-14T06:26:21;5.85;;;2.50;;
19985;SDS011;10154;52.474;10.768;2023-06-14T06:28:47;5.32;;;2.47;;
19985;SDS011;10154;52.474;10.768;2023-06-14T06:31:12;3.53;;;2.25;;
19985;SDS011;10154;52.474;10.768;2023-06-14T06:33:37;3.65;;;2.47;;
19985;SDS011;10154;52.474;10.768;2023-06-14T06:36:04;4.45;;;2.35;;
19985;SDS011;10154;52.474;10.768;2023-06-14T06:38:30;3.95;;;2.35;;
19985;SDS011;10154;52.474;10.768;2023-06-14T06:40:55;3.15;;;2.22;;
19985;SDS011;10154;52.474;10.768;2023-06-14T06:43:21;4.00;;;2.35;;
19985;SDS011;10154;52.474;10.768;2023-06-14T06:45:47;5.35;;;2.00;;
19985;SDS011;10154;52.474;10.768;2023-06-14T06:48:12;2.65;;;1.92;;
19985;SDS011;10154;52.474;10.768;2023-06-14T06:50:38;4.82;;;2.20;;
19985;SDS011;10154;52.474;10.768;2023-06-14T06:53:03;3.80;;;2.00;;
19985;SDS011;10154;52.474;10.768;2023-06-14T06:55:29;3.65;;;2.28;;
19985;SDS011;10154;52.474;10.768;2023-06-14T06:57:55;9.75;;;2.45;;
19985;SDS011;10154;52.474;10.768;2023-06-14T07:00:20;5.63;;;2.25;;
19985;SDS011;10154;52.474;10.768;2023-06-14T07:02:46;5.10;;;2.05;;
19985;SDS011;10154;52.474;10.768;2023-06-14T07:05:11;3.67;;;2.00;;
19985;SDS011;10154;52.474;10.768;2023-06-14T07:07:37;6.05;;;1.83;;
19985;SDS011;10154;52.474;10.768;2023-06-14T07:10:03;5.60;;;2.00;;
19985;SDS011;10154;52.474;10.768;2023-06-14T07:12:30;3.35;;;2.05;;
19985;SDS011;10154;52.474;10.768;2023-06-14T07:14:58;3.92;;;1.80;;
19985;SDS011;10154;52.474;10.768;2023-06-14T07:17:24;2.70;;;1.80;;
19985;SDS011;10154;52.474;10.768;2023-06-14T07:19:49;6.32;;;2.10;;
19985;SDS011;10154;52.474;10.768;2023-06-14T07:22:15;3.92;;;1.90;;
19985;SDS011;10154;52.474;10.768;2023-06-14T07:24:41;3.97;;;1.83;;
19985;SDS011;10154;52.474;10.768;2023-06-14T07:27:07;2.97;;;2.33;;
19985;SDS011;10154;52.474;10.768;2023-06-14T07:29:32;3.17;;;1.75;;
19985;SDS011;10154;52.474;10.768;2023-06-14T07:31:58;4.28;;;1.70;;
19985;SDS011;10154;52.474;10.768;2023-06-14T07:34:23;2.70;;;1.88;;
19985;SDS011;10154;52.474;10.768;2023-06-14T07:36:48;2.63;;;1.73;;
19985;SDS011;10154;52.474;10.768;2023-06-14T07:39:14;4.90;;;2.00;;
19985;SDS011;10154;52.474;10.768;2023-06-14T07:41:39;3.38;;;2.10;;
19985;SDS011;10154;52.474;10.768;2023-06-14T07:44:04;2.35;;;1.83;;
19985;SDS011;10154;52.474;10.768;2023-06-14T07:46:30;3.20;;;2.10;;
19985;SDS011;10154;52.474;10.768;2023-06-14T07:48:55;4.13;;;1.90;;
19985;SDS011;10154;52.474;10.768;2023-06-14T07:51:21;2.72;;;1.85;;
19985;SDS011;10154;52.474;10.768;2023-06-14T07:53:48;6.40;;;2.17;;
19985;SDS011;10154;52.474;10.768;2023-06-14T07:56:13;4.07;;;2.17;;
19985;SDS011;10154;52.474;10.768;2023-06-14T07:58:39;4.05;;;1.90;;
19985;SDS011;10154;52.474;10.768;2023-06-14T08:01:04;2.55;;;2.05;;
19985;SDS011;10154;52.474;10.768;2023-06-14T08:03:31;5.80;;;2.00;;
19985;SDS011;10154;52.474;10.768;2023-06-14T08:05:57;3.85;;;2.25;;
19985;SDS011;10154;52.474;10.768;2023-06-14T08:08:23;3.92;;;2.25;;
19985;SDS011;10154;52.474;10.768;2023-06-14T08:10:48;3.83;;;2.20;;
19985;SDS011;10154;52.474;10.768;2023-06-14T08:13:13;2.90;;;2.05;;
19985;SDS011;10154;52.474;10.768;2023-06-14T08:15:39;3.35;;;2.00;;
19985;SDS011;10154;52.474;10.768;2023-06-14T08:18:04;3.17;;;1.90;;
19985;SDS011;10154;52.474;10.768;2023-06-14T08:20:30;3.40;;;1.88;;
19985;SDS011;10154;52.474;10.768;2023-06-14T08:22:56;6.25;;;2.28;;
19985;SDS011;10154;52.474;10.768;2023-06-14T08:25:22;4.25;;;2.08;;
19985;SDS011;10154;52.474;10.768;2023-06-14T08:27:48;5.35;;;2.08;;
19985;SDS011;10154;52.474;10.768;2023-06-14T08:30:13;2.58;;;1.83;;
19985;SDS011;10154;52.474;10.768;2023-06-14T08:32:39;12.73;;;2.28;;
19985;SDS011;10154;52.474;10.768;2023-06-14T08:35:04;4.60;;;2.10;;
19985;SDS011;10154;52.474;10.768;2023-06-14T08:37:30;6.22;;;2.20;;
19985;SDS011;10154;52.474;10.768;2023-06-14T08:39:56;4.75;;;2.03;;
19985;SDS011;10154;52.474;10.768;2023-06-14T08:42:21;2.97;;;1.90;;
19985;SDS011;10154;52.474;10.768;2023-06-14T08:44:49;7.03;;;1.92;;
19985;SDS011;10154;52.474;10.768;2023-06-14T08:47:14;3.83;;;2.05;;
19985;SDS011;10154;52.474;10.768;2023-06-14T08:49:41;2.45;;;2.00;;
19985;SDS011;10154;52.474;10.768;2023-06-14T08:52:10;3.33;;;2.00;;
19985;SDS011;10154;52.474;10.768;2023-06-14T08:54:37;3.53;;;2.00;;
19985;SDS011;10154;52.474;10.768;2023-06-14T08:57:08;2.72;;;2.10;;
19985;SDS011;10154;52.474;10.768;2023-06-14T08:59:37;3.70;;;2.42;;
19985;SDS011;10154;52.474;10.768;2023-06-14T09:02:14;6.22;;;2.33;;
19985;SDS011;10154;52.474;10.768;2023-06-14T09:04:43;6.13;;;2.40;;
19985;SDS011;10154;52.474;10.768;2023-06-14T09:07:09;3.78;;;2.33;;
19985;SDS011;10154;52.474;10.768;2023-06-14T09:09:38;4.30;;;2.40;;
19985;SDS011;10154;52.474;10.768;2023-06-14T09:12:05;2.90;;;2.13;;
19985;SDS011;10154;52.474;10.768;2023-06-14T09:14:33;4.40;;;2.17;;
19985;SDS011;10154;52.474;10.768;2023-06-14T09:17:03;4.47;;;2.63;;
19985;SDS011;10154;52.474;10.768;2023-06-14T09:19:28;4.22;;;2.28;;
19985;SDS011;10154;52.474;10.768;2023-06-14T09:21:54;5.00;;;2.25;;
19985;SDS011;10154;52.474;10.768;2023-06-14T09:24:20;3.85;;;2.20;;
19985;SDS011;10154;52.474;10.768;2023-06-14T09:26:50;3.78;;;2.25;;
19985;SDS011;10154;52.474;10.768;2023-06-14T09:29:16;5.82;;;2.60;;
19985;SDS011;10154;52.474;10.768;2023-06-14T09:31:41;5.60;;;2.20;;
19985;SDS011;10154;52.474;10.768;2023-06-14T09:34:07;7.78;;;2.38;;
19985;SDS011;10154;52.474;10.768;2023-06-14T09:36:32;4.88;;;2.80;;
19985;SDS011;10154;52.474;10.768;2023-06-14T09:38:58;4.53;;;2.42;;
19985;SDS011;10154;52.474;10.768;2023-06-14T09:41:38;4.47;;;2.53;;
19985;SDS011;10154;52.474;10.768;2023-06-14T09:44:06;5.57;;;2.80;;
19985;SDS011;10154;52.474;10.768;2023-06-14T09:46:32;5.25;;;2.92;;
19985;SDS011;10154;52.474;10.768;2023-06-14T09:48:58;5.63;;;2.80;;
19985;SDS011;10154;52.474;10.768;2023-06-14T09:51:24;7.10;;;3.17;;
19985;SDS011;10154;52.474;10.768;2023-06-14T09:53:51;3.85;;;2.95;;
19985;SDS011;10154;52.474;10.768;2023-06-14T09:56:40;5.68;;;3.00;;
19985;SDS011;10154;52.474;10.768;2023-06-14T09:59:04;4.93;;;2.95;;
19985;SDS011;10154;52.474;10.768;2023-06-14T10:01:31;5.15;;;2.90;;
19985;SDS011;10154;52.474;10.768;2023-06-14T10:04:00;7.03;;;2.90;;
19985;SDS011;10154;52.474;10.768;2023-06-14T10:06:28;6.90;;;2.85;;
19985;SDS011;10154;52.474;10.768;2023-06-14T10:08:56;5.13;;;3.10;;
19985;SDS011;10154;52.474;10.768;2023-06-14T10:11:24;6.13;;;2.97;;
19985;SDS011;10154;52.474;10.768;2023-06-14T10:13:50;7.28;;;3.10;;
19985;SDS011;10154;52.474;10.768;2023-06-14T10:18:48;7.10;;;3.22;;
19985;SDS011;10154;52.474;10.768;2023-06-14T10:21:23;5.18;;;2.92;;
19985;SDS011;10154;52.474;10.768;2023-06-14T10:23:53;5.38;;;2.90;;
19985;SDS011;10154;52.474;10.768;2023-06-14T10:26:21;9.25;;;3.10;;
19985;SDS011;10154;52.474;10.768;2023-06-14T10:31:47;9.27;;;3.05;;
19985;SDS011;10154;52.474;10.768;2023-06-14T10:34:23;5.32;;;3.17;;
19985;SDS011;10154;52.474;10.768;2023-06-14T10:37:23;5.18;;;3.08;;
19985;SDS011;10154;52.474;10.768;2023-06-14T10:39:44;7.13;;;3.10;;
19985;SDS011;10154;52.474;10.768;2023-06-14T10:42:13;8.00;;;3.70;;
19985;SDS011;10154;52.474;10.768;2023-06-14T10:44:45;4.97;;;2.75;;
19985;SDS011;10154;52.474;10.768;2023-06-14T10:47:21;4.43;;;2.90;;
19985;SDS011;10154;52.474;10.768;2023-06-14T10:52:33;7.65;;;3.13;;
19985;SDS011;10154;52.474;10.768;2023-06-14T10:57:32;5.13;;;3.20;;
19985;SDS011;10154;52.474;10.768;2023-06-14T11:00:01;5.57;;;3.20;;
19985;SDS011;10154;52.474;10.768;2023-06-14T11:05:15;5.30;;;2.80;;
19985;SDS011;10154;52.474;10.768;2023-06-14T11:10:37;7.70;;;3.00;;
19985;SDS011;10154;52.474;10.768;2023-06-14T11:13:04;8.68;;;3.30;;
19985;SDS011;10154;52.474;10.768;2023-06-14T11:15:30;8.02;;;3.03;;
19985;SDS011;10154;52.474;10.768;2023-06-14T11:17:56;7.55;;;2.95;;
19985;SDS011;10154;52.474;10.768;2023-06-14T11:20:24;7.90;;;3.00;;
19985;SDS011;10154;52.474;10.768;2023-06-14T11:22:51;7.30;;;3.22;;
19985;SDS011;10154;52.474;10.768;2023-06-14T11:25:17;6.63;;;2.78;;
19985;SDS011;10154;52.474;10.768;2023-06-14T11:27:43;7.25;;;3.17;;
19985;SDS011;10154;52.474;10.768;2023-06-14T11:30:09;6.70;;;3.00;;
19985;SDS011;10154;52.474;10.768;2023-06-14T11:32:35;5.78;;;3.05;;
19985;SDS011;10154;52.474;10.768;2023-06-14T11:35:05;9.52;;;2.75;;
19985;SDS011;10154;52.474;10.768;2023-06-14T11:37:31;7.65;;;2.97;;
19985;SDS011;10154;52.474;10.768;2023-06-14T11:39:59;9.27;;;2.85;;
19985;SDS011;10154;52.474;10.768;2023-06-14T11:42:29;10.43;;;3.05;;
19985;SDS011;10154;52.474;10.768;2023-06-14T11:44:55;9.43;;;2.90;;
19985;SDS011;10154;52.474;10.768;2023-06-14T11:47:21;7.40;;;2.90;;
19985;SDS011;10154;52.474;10.768;2023-06-14T11:49:47;7.47;;;2.83;;
19985;SDS011;10154;52.474;10.768;2023-06-14T11:52:12;12.40;;;3.05;;
19985;SDS011;10154;52.474;10.768;2023-06-14T11:54:38;6.10;;;3.05;;
19985;SDS011;10154;52.474;10.768;2023-06-14T11:57:05;5.57;;;3.13;;
19985;SDS011;10154;52.474;10.768;2023-06-14T11:59:32;7.82;;;2.90;;
19985;SDS011;10154;52.474;10.768;2023-06-14T12:01:57;7.70;;;2.97;;
19985;SDS011;10154;52.474;10.768;2023-06-14T12:04:29;6.50;;;3.10;;
19985;SDS011;10154;52.474;10.768;2023-06-14T12:06:55;8.35;;;3.10;;
19985;SDS011;10154;52.474;10.768;2023-06-14T12:09:22;6.50;;;2.80;;
19985;SDS011;10154;52.474;10.768;2023-06-14T12:11:50;5.35;;;2.92;;
19985;SDS011;10154;52.474;10.768;2023-06-14T12:14:16;14.98;;;3.00;;
19985;SDS011;10154;52.474;10.768;2023-06-14T12:16:41;9.48;;;2.97;;
19985;SDS011;10154;52.474;10.768;2023-06-14T12:19:08;8.82;;;2.90;;
19985;SDS011;10154;52.474;10.768;2023-06-14T12:21:37;7.93;;;3.28;;
19985;SDS011;10154;52.474;10.768;2023-06-14T12:24:05;7.18;;;3.13;;
19985;SDS011;10154;52.474;10.768;2023-06-14T12:26:31;13.25;;;2.88;;
19985;SDS011;10154;52.474;10.768;2023-06-14T12:28:57;9.57;;;3.05;;
19985;SDS011;10154;52.474;10.768;2023-06-14T12:31:23;6.75;;;3.00;;
19985;SDS011;10154;52.474;10.768;2023-06-14T12:33:49;3.95;;;2.67;;
19985;SDS011;10154;52.474;10.768;2023-06-14T12:36:15;6.55;;;3.20;;
19985;SDS011;10154;52.474;10.768;2023-06-14T12:38:41;6.53;;;3.00;;
19985;SDS011;10154;52.474;10.768;2023-06-14T12:41:06;11.07;;;2.97;;
19985;SDS011;10154;52.474;10.768;2023-06-14T12:43:32;8.38;;;2.95;;
19985;SDS011;10154;52.474;10.768;2023-06-14T12:45:58;8.15;;;3.10;;
19985;SDS011;10154;52.474;10.768;2023-06-14T12:48:24;8.73;;;3.05;;
19985;SDS011;10154;52.474;10.768;2023-06-14T12:50:49;3.80;;;2.90;;
19985;SDS011;10154;52.474;10.768;2023-06-14T12:53:15;5.32;;;2.97;;
19985;SDS011;10154;52.474;10.768;2023-06-14T12:55:40;4.90;;;2.92;;
19985;SDS011;10154;52.474;10.768;2023-06-14T12:58:06;11.88;;;3.20;;
19985;SDS011;10154;52.474;10.768;2023-06-14T13:00:31;8.18;;;3.00;;
19985;SDS011;10154;52.474;10.768;2023-06-14T13:02:57;12.40;;;3.47;;
19985;SDS011;10154;52.474;10.768;2023-06-14T13:05:23;4.38;;;2.80;;
19985;SDS011;10154;52.474;10.768;2023-06-14T13:07:49;5.50;;;2.75;;
19985;SDS011;10154;52.474;10.768;2023-06-14T13:10:15;8.38;;;2.95;;
19985;SDS011;10154;52.474;10.768;2023-06-14T13:12:41;5.95;;;2.90;;
19985;SDS011;10154;52.474;10.768;2023-06-14T13:15:06;5.95;;;3.10;;
19985;SDS011;10154;52.474;10.768;2023-06-14T13:17:33;10.45;;;3.10;;
19985;SDS011;10154;52.474;10.768;2023-06-14T13:20:03;8.52;;;3.30;;
19985;SDS011;10154;52.474;10.768;2023-06-14T13:22:33;9.77;;;2.92;;
19985;SDS011;10154;52.474;10.768;2023-06-14T13:24:58;8.52;;;2.97;;
19985;SDS011;10154;52.474;10.768;2023-06-14T13:27:25;6.40;;;3.33;;
19985;SDS011;10154;52.474;10.768;2023-06-14T13:29:51;5.20;;;3.17;;
19985;SDS011;10154;52.474;10.768;2023-06-14T13:32:16;6.97;;;3.20;;
19985;SDS011;10154;52.474;10.768;2023-06-14T13:34:42;6.00;;;3.10;;
19985;SDS011;10154;52.474;10.768;2023-06-14T13:37:07;7.03;;;3.30;;
19985;SDS011;10154;52.474;10.768;2023-06-14T13:39:33;9.25;;;3.20;;
19985;SDS011;10154;52.474;10.768;2023-06-14T13:41:58;7.65;;;2.78;;
19985;SDS011;10154;52.474;10.768;2023-06-14T13:44:23;5.32;;;3.13;;
19985;SDS011;10154;52.474;10.768;2023-06-14T13:46:50;8.40;;;3.35;;
19985;SDS011;10154;52.474;10.768;2023-06-14T13:49:15;7.55;;;3.28;;
19985;SDS011;10154;52.474;10.768;2023-06-14T13:51:41;8.45;;;3.00;;
19985;SDS011;10154;52.474;10.768;2023-06-14T13:54:06;7.90;;;3.10;;
19985;SDS011;10154;52.474;10.768;2023-06-14T13:56:31;4.32;;;2.88;;
19985;SDS011;10154;52.474;10.768;2023-06-14T13:58:57;9.18;;;3.10;;
19985;SDS011;10154;52.474;10.768;2023-06-14T14:01:22;4.30;;;2.80;;
19985;SDS011;10154;52.474;10.768;2023-06-14T14:03:49;4.43;;;2.78;;
19985;SDS011;10154;52.474;10.768;2023-06-14T14:06:15;7.97;;;2.83;;
19985;SDS011;10154;52.474;10.768;2023-06-14T14:08:41;4.93;;;2.80;;
19985;SDS011;10154;52.474;10.768;2023-06-14T14:11:07;5.47;;;2.83;;
19985;SDS011;10154;52.474;10.768;2023-06-14T14:13:33;5.65;;;2.70;;
19985;SDS011;10154;52.474;10.768;2023-06-14T14:15:58;5.03;;;2.88;;
19985;SDS011;10154;52.474;10.768;2023-06-14T14:18:24;6.45;;;2.90;;
19985;SDS011;10154;52.474;10.768;2023-06-14T14:20:50;4.70;;;2.80;;
19985;SDS011;10154;52.474;10.768;2023-06-14T14:23:15;6.53;;;2.83;;
19985;SDS011;10154;52.474;10.768;2023-06-14T14:25:41;7.97;;;3.00;;
19985;SDS011;10154;52.474;10.768;2023-06-14T14:28:07;9.07;;;3.15;;
19985;SDS011;10154;52.474;10.768;2023-06-14T14:30:32;6.57;;;2.97;;
19985;SDS011;10154;52.474;10.768;2023-06-14T14:32:57;4.45;;;2.65;;
19985;SDS011;10154;52.474;10.768;2023-06-14T14:35:23;7.03;;;3.38;;
19985;SDS011;10154;52.474;10.768;2023-06-14T14:37:51;4.82;;;2.95;;
19985;SDS011;10154;52.474;10.768;2023-06-14T14:40:16;9.80;;;3.30;;
19985;SDS011;10154;52.474;10.768;2023-06-14T14:42:42;7.28;;;3.00;;
19985;SDS011;10154;52.474;10.768;2023-06-14T14:45:07;9.77;;;3.08;;
19985;SDS011;10154;52.474;10.768;2023-06-14T14:47:33;3.30;;;2.70;;